• Join FlightAware (Why Join?)
  • Login
  • US Flag 
Rudolph Flight #1: Arrived! 
12:56PM EST


 

Airport Tracker/Info


-or-


 

Live Flight TrackerFlight Track Log ✈ VH-PRG ✈ 29-Jun-2013 ✈ YTWB - YBAF

Flight Track Log - Related Links

Times and Time Zones

All times are in EDT time to prevent confusion due to time zone crossing. See the VH-PRG flight status page for this flight to view local times or setup timezone preferences in your user account.

Time Position Orientation Groundspeed Altitude Reporting Facility
EDT Latitude Longitude Course Direction KTS MPH feet Rate Location/Type
04:16AM -27.5346 151.9024 119° Southeast 96 110 2,200  Level Aus ATC (RADAR)
04:16AM -27.5412 151.9159 119° Southeast 96 110 2,000 360 Descending Aus ATC (RADAR)
04:17AM -27.5512 151.9366 119° Southeast 104 120 2,700 1,080 Climbing Aus ATC (RADAR)
04:18AM -27.5589 151.9516 120° Southeast 110 127 3,400 1,080 Climbing Aus ATC (RADAR)
04:18AM -27.5690 151.9685 124° Southeast 114 131 3,900 780 Climbing Aus ATC (RADAR)
04:19AM -27.5700 151.9908 93° East 121 139 4,300 840 Climbing Aus ATC (RADAR)
04:19AM -27.5657 152.0101 76° East 125 144 4,800 600 Climbing Aus ATC (RADAR)
04:20AM -27.5594 152.0338 73° East 133 153 5,000 120 Climbing Aus ATC (RADAR)
04:21AM -27.5562 152.0625 83° East 155 178 5,000  Level Aus ATC (RADAR)
04:21AM -27.5617 152.0876 104° East 161 185 5,000  Level Aus ATC (RADAR)
04:22AM -27.5664 152.1172 100° East 163 188 5,000  Level Aus ATC (RADAR)
04:22AM -27.5711 152.1470 100° East 164 189 5,000 -120 Level Aus ATC (RADAR)
04:23AM -27.5752 152.1769 99° East 164 189 4,900  Descending Aus ATC (RADAR)
04:23AM -27.5792 152.2067 99° East 163 188 5,000 60 Climbing Aus ATC (RADAR)
04:24AM -27.5830 152.2319 100° East 163 188 5,000  Level Aus ATC (RADAR)
04:24AM -27.5872 152.2618 99° East 163 188 5,000  Level Aus ATC (RADAR)
04:25AM -27.5902 152.2878 98° East 165 190 5,000  Level Aus ATC (RADAR)
04:26AM -27.5943 152.3187 98° East 171 197 5,000  Level Aus ATC (RADAR)
04:26AM -27.5992 152.3539 99° East 170 196 5,000  Level Aus ATC (RADAR)
04:27AM -27.6037 152.3843 100° East 167 192 5,000  Level Aus ATC (RADAR)
04:28AM -27.6085 152.4237 98° East 167 192 5,000  Level Aus ATC (RADAR)
04:29AM -27.6151 152.4772 98° East 170 196 5,000  Level Aus ATC (RADAR)
04:29AM -27.6196 152.5129 98° East 171 197 5,000  Level Aus ATC (RADAR)
04:30AM -27.6246 152.5615 97° East 167 192 5,000  Level Aus ATC (RADAR)
04:31AM -27.6297 152.5960 99° East 164 189 5,000 -420 Level Aus ATC (RADAR)
04:32AM -27.6363 152.6519 98° East 179 206 4,300 -720 Descending Aus ATC (RADAR)
04:32AM -27.6412 152.6866 99° East 187 215 3,900 -720 Descending Aus ATC (RADAR)
04:33AM -27.6461 152.7206 99° East 187 215 3,500 -540 Descending Aus ATC (RADAR)
04:34AM -27.6369 152.7534 72° East 183 211 3,300 -120 Descending Aus ATC (RADAR)
04:34AM -27.6286 152.7798 70° East 177 204 3,400 60 Climbing Aus ATC (RADAR)
04:35AM -27.6212 152.8049 71° East 167 192 3,400  Level Aus ATC (RADAR)
04:35AM -27.6124 152.8335 71° East 163 188 3,400  Level Aus ATC (RADAR)
04:36AM -27.6040 152.8628 72° East 166 191 3,400 -120 Level Aus ATC (RADAR)
04:36AM -27.5972 152.8880 73° East 166 191 3,300 -480 Descending Aus ATC (RADAR)
04:37AM -27.5888 152.9176 72° East 168 193 2,900 -360 Descending Aus ATC (RADAR)
04:37AM -27.5800 152.9491 72° East 155 178 2,900 -540 Level Aus ATC (RADAR)
04:38AM -27.5665 152.9586 32° Northeast 135 155 2,300 -1,620 Descending Aus ATC (RADAR)
04:39AM -27.5586 152.9696 51° Northeast 92 106 1,200 -1,560 Descending Aus ATC (RADAR)
04:39AM -27.5670 152.9832 125° Southeast 83 96 500 -1,200 Descending Aus ATC (RADAR)